Terminal Aerodrome Forecast
Issued by NWS

Home | Current Version | Previous Version | Text Only | Print | Product List | Glossary On
Versions: 1 2 3 4 5 6 7 8 9 10 11 12 13 14 15 16 17 18 19
180
FTUS44 KLZK 312337
TAFLLQ
TAF
KLLQ 312337Z 0100/0124 15005KT P6SM VCSH SCT030 BKN050 BKN250
     FM010800 VRB03KT P6SM VCSH FEW012 BKN050 OVC150
      TEMPO 0109/0113 3SM BR BKN025
     FM011500 11006KT P6SM VCSH BKN025 OVC100=

USA.gov is the U.S. government's official web portal to all federal, state and local government web resources and services.